createdAt,value
2022-09-22T00:01:32.183Z,100.00
2022-09-22T00:04:04.940Z,100.00
2022-09-22T00:06:36.453Z,100.00
2022-09-22T00:09:05.703Z,100.00
2022-09-22T00:11:36.225Z,100.00
2022-09-22T00:14:07.992Z,100.00
2022-09-22T00:16:38.967Z,100.00
2022-09-22T00:19:09.128Z,100.00
2022-09-22T00:21:37.622Z,100.00
2022-09-22T00:24:07.868Z,100.00
2022-09-22T00:26:37.975Z,100.00
2022-09-22T00:29:07.980Z,100.00
2022-09-22T00:31:37.122Z,100.00
2022-09-22T00:34:05.039Z,100.00
2022-09-22T00:36:35.472Z,100.00
2022-09-22T00:39:03.877Z,100.00
2022-09-22T00:41:34.041Z,100.00
2022-09-22T00:44:33.429Z,100.00
2022-09-22T00:47:07.307Z,100.00
2022-09-22T00:49:42.711Z,100.00
2022-09-22T00:52:14.081Z,100.00
2022-09-22T00:54:42.244Z,100.00
2022-09-22T00:57:14.330Z,100.00
2022-09-22T00:59:45.656Z,100.00
2022-09-22T01:02:13.909Z,100.00
2022-09-22T01:04:42.618Z,100.00
2022-09-22T01:07:13.137Z,100.00
2022-09-22T01:09:41.032Z,100.00
2022-09-22T01:12:09.526Z,100.00
2022-09-22T01:14:50.258Z,100.00
2022-09-22T01:17:26.041Z,100.00
2022-09-22T01:20:16.608Z,100.00
2022-09-22T01:23:18.456Z,100.00
2022-09-22T01:26:02.949Z,100.00
2022-09-22T01:29:04.356Z,100.00
2022-09-22T01:31:39.186Z,100.00
2022-09-22T01:34:12.918Z,100.00
2022-09-22T01:36:48.316Z,100.00
2022-09-22T01:39:23.713Z,100.00
2022-09-22T01:41:58.215Z,100.00
2022-09-22T01:44:32.533Z,100.00
2022-09-22T01:47:07.821Z,100.00
2022-09-22T01:49:41.372Z,100.00
2022-09-22T01:52:16.502Z,100.00
2022-09-22T01:54:47.252Z,100.00
2022-09-22T01:57:19.487Z,100.00
2022-09-22T01:59:54.356Z,100.00
2022-09-22T02:02:28.776Z,100.00
2022-09-22T02:05:02.082Z,100.00
2022-09-22T02:07:34.352Z,100.00
2022-09-22T02:10:08.138Z,100.00
2022-09-22T02:12:36.744Z,100.00
2022-09-22T02:15:05.521Z,100.00
2022-09-22T02:17:35.812Z,100.00
2022-09-22T02:20:06.689Z,100.00
2022-09-22T02:22:34.888Z,100.00
2022-09-22T02:25:02.786Z,100.00
2022-09-22T02:27:36.650Z,100.00
2022-09-22T02:30:08.379Z,100.00
2022-09-22T02:32:40.650Z,100.00
2022-09-22T02:35:09.947Z,100.00
2022-09-22T02:37:41.592Z,100.00
2022-09-22T02:40:21.101Z,100.00
2022-09-22T02:42:54.778Z,100.00
2022-09-22T02:45:28.176Z,100.00
2022-09-22T02:48:00.357Z,100.00
2022-09-22T02:50:31.214Z,100.00
2022-09-22T02:53:03.740Z,100.00
2022-09-22T02:55:31.864Z,100.00
2022-09-22T02:57:59.694Z,100.00
2022-09-22T03:00:27.698Z,100.00
2022-09-22T03:02:56.993Z,100.00
2022-09-22T03:05:24.966Z,100.00
2022-09-22T03:07:52.968Z,100.00
2022-09-22T03:10:20.925Z,100.00
2022-09-22T03:13:14.459Z,100.00
2022-09-22T03:15:37.033Z,100.00
2022-09-22T03:18:06.683Z,100.00
2022-09-22T03:20:34.785Z,100.00
2022-09-22T03:23:02.723Z,100.00
2022-09-22T03:25:30.610Z,100.00
2022-09-22T03:27:58.525Z,100.00
2022-09-22T03:30:26.473Z,100.00
2022-09-22T03:32:54.380Z,100.00
2022-09-22T03:35:23.734Z,100.00
2022-09-22T03:37:51.637Z,100.00
2022-09-22T03:40:19.697Z,100.00
2022-09-22T03:42:47.642Z,100.00
2022-09-22T03:45:16.075Z,100.00
2022-09-22T03:47:44.015Z,100.00
2022-09-22T03:50:11.945Z,100.00
2022-09-22T03:52:42.916Z,100.00
2022-09-22T03:55:11.706Z,100.00
2022-09-22T03:57:40.411Z,100.00
2022-09-22T04:00:09.743Z,100.00
2022-09-22T04:02:40.659Z,100.00
2022-09-22T04:05:09.836Z,100.00
2022-09-22T04:07:37.833Z,100.00
2022-09-22T04:10:08.960Z,100.00
2022-09-22T04:12:37.259Z,100.00
2022-09-22T04:15:06.225Z,100.00
2022-09-22T04:17:34.114Z,100.00
2022-09-22T04:20:02.630Z,100.00
2022-09-22T04:22:30.666Z,100.00
2022-09-22T04:24:58.542Z,100.00
2022-09-22T04:27:27.848Z,100.00
2022-09-22T04:29:56.028Z,100.00
2022-09-22T04:32:24.418Z,100.00
2022-09-22T04:34:52.304Z,100.00
2022-09-22T04:37:20.177Z,100.00
2022-09-22T04:39:48.102Z,100.00
2022-09-22T04:42:16.065Z,100.00
2022-09-22T04:44:46.072Z,100.00
2022-09-22T04:47:14.202Z,100.00
2022-09-22T04:49:42.085Z,100.00
2022-09-22T04:52:10.550Z,100.00
2022-09-22T04:54:38.412Z,100.00
2022-09-22T04:57:06.573Z,100.00
2022-09-22T04:59:35.258Z,100.00
2022-09-22T05:02:04.734Z,100.00
2022-09-22T05:04:32.816Z,100.00
2022-09-22T05:07:00.767Z,100.00
2022-09-22T05:09:29.104Z,100.00
2022-09-22T05:11:58.726Z,100.00
2022-09-22T05:14:26.739Z,100.00
2022-09-22T05:16:54.691Z,100.00
2022-09-22T05:19:24.130Z,100.00
2022-09-22T05:21:52.111Z,100.00
2022-09-22T05:24:20.027Z,100.00
2022-09-22T05:26:48.098Z,100.00
2022-09-22T05:29:18.178Z,100.00
2022-09-22T05:31:46.386Z,100.00
2022-09-22T05:34:14.372Z,100.00
2022-09-22T05:36:43.828Z,100.00
2022-09-22T05:39:11.785Z,100.00
2022-09-22T05:41:39.862Z,100.00
2022-09-22T05:44:07.870Z,100.00
2022-09-22T05:46:35.791Z,100.00
2022-09-22T05:49:03.939Z,100.00
2022-09-22T05:51:31.839Z,100.00
2022-09-22T05:54:01.230Z,100.00
2022-09-22T05:56:29.199Z,100.00
2022-09-22T05:58:57.140Z,100.00
2022-09-22T06:01:25.391Z,100.00
2022-09-22T06:03:53.633Z,100.00
2022-09-22T06:06:21.597Z,100.00
2022-09-22T06:08:50.859Z,100.00
2022-09-22T06:11:20.374Z,100.00
2022-09-22T06:13:51.535Z,100.00
2022-09-22T06:16:19.726Z,100.00
2022-09-22T06:18:48.092Z,100.00
2022-09-22T06:21:16.630Z,100.00
2022-09-22T06:23:44.776Z,100.00
2022-09-22T06:26:12.746Z,100.00
2022-09-22T06:28:42.065Z,100.00
2022-09-22T06:31:10.027Z,100.00
2022-09-22T06:33:37.960Z,100.00
2022-09-22T06:36:08.005Z,100.00
2022-09-22T06:38:35.932Z,100.00
2022-09-22T06:41:04.212Z,100.00
2022-09-22T06:43:37.728Z,100.00
2022-09-22T06:46:11.205Z,100.00
2022-09-22T06:48:39.176Z,100.00
2022-09-22T06:51:07.225Z,100.00
2022-09-22T06:53:35.219Z,100.00
2022-09-22T06:56:06.005Z,100.00
2022-09-22T06:58:52.356Z,100.00
2022-09-22T07:01:24.365Z,100.00
2022-09-22T07:03:52.749Z,100.00
2022-09-22T07:06:21.079Z,100.00
2022-09-22T07:08:50.183Z,100.00
2022-09-22T07:11:23.552Z,100.00
2022-09-22T07:13:53.342Z,100.00
2022-09-22T07:16:22.884Z,100.00
2022-09-22T07:18:54.288Z,100.00
2022-09-22T07:21:24.630Z,100.00
2022-09-22T07:23:55.738Z,100.00
2022-09-22T07:26:26.434Z,100.00
2022-09-22T07:28:54.986Z,100.00
2022-09-22T07:31:28.446Z,100.00
2022-09-22T07:34:00.201Z,100.00
2022-09-22T07:36:30.492Z,100.00
2022-09-22T07:39:04.109Z,100.00
2022-09-22T07:41:41.271Z,100.00
2022-09-22T07:44:27.897Z,100.00
2022-09-22T07:46:56.003Z,100.00
2022-09-22T07:49:25.365Z,100.00
2022-09-22T07:51:54.920Z,100.00
2022-09-22T07:54:23.856Z,100.00
2022-09-22T07:56:55.245Z,100.00
2022-09-22T07:59:23.249Z,100.00
2022-09-22T08:01:53.618Z,100.00
2022-09-22T08:04:23.958Z,100.00
2022-09-22T08:06:55.279Z,100.00
2022-09-22T08:09:23.743Z,100.00
2022-09-22T08:11:53.002Z,100.00
2022-09-22T08:14:22.164Z,100.00
2022-09-22T08:16:51.272Z,100.00
2022-09-22T08:19:19.240Z,100.00
2022-09-22T08:21:49.697Z,100.00
2022-09-22T08:24:22.325Z,100.00
2022-09-22T08:26:52.253Z,100.00
2022-09-22T08:29:20.750Z,100.00
2022-09-22T08:31:51.309Z,100.00
2022-09-22T08:34:20.100Z,100.00
2022-09-22T08:36:48.630Z,100.00
2022-09-22T08:39:19.126Z,100.00
2022-09-22T08:41:59.361Z,100.00
2022-09-22T08:44:29.618Z,100.00
2022-09-22T08:47:01.677Z,100.00
2022-09-22T08:49:53.550Z,100.00
2022-09-22T08:52:32.520Z,100.00
2022-09-22T08:55:03.202Z,100.00
2022-09-22T08:57:56.172Z,100.00
2022-09-22T09:00:25.714Z,100.00
2022-09-22T09:03:10.616Z,100.00
2022-09-22T09:06:04.325Z,100.00
2022-09-22T09:09:05.705Z,100.00
2022-09-22T09:12:01.214Z,100.00
2022-09-22T09:14:52.033Z,100.00
2022-09-22T09:17:24.668Z,100.00
2022-09-22T09:19:58.102Z,100.00
2022-09-22T09:22:32.017Z,100.00
2022-09-22T09:27:57.092Z,100.00
2022-09-22T09:30:25.377Z,100.00
2022-09-22T09:32:59.091Z,100.00
2022-09-22T09:35:41.423Z,100.00
2022-09-22T09:38:14.556Z,100.00
2022-09-22T09:40:42.957Z,100.00
2022-09-22T09:43:12.251Z,100.00
2022-09-22T09:45:51.293Z,100.00
2022-09-22T09:48:30.634Z,100.00
2022-09-22T09:51:03.547Z,100.00
2022-09-22T09:53:40.469Z,100.00
2022-09-22T09:56:22.410Z,100.00
2022-09-22T09:59:16.783Z,100.00
2022-09-22T10:01:47.139Z,93.16
2022-09-22T10:04:20.425Z,97.27
2022-09-22T10:06:49.392Z,90.60
2022-09-22T10:09:28.635Z,88.26
2022-09-22T10:12:00.873Z,80.44
2022-09-22T10:14:33.603Z,75.84
2022-09-22T10:17:03.840Z,76.34
2022-09-22T10:19:34.444Z,79.00
2022-09-22T10:22:24.786Z,78.22
2022-09-22T10:24:58.178Z,71.54
2022-09-22T10:27:28.307Z,74.57
2022-09-22T10:30:22.765Z,64.80
2022-09-22T10:33:14.856Z,67.74
2022-09-22T10:35:44.930Z,58.78
2022-09-22T10:38:19.752Z,56.30
2022-09-22T10:40:51.334Z,53.48
2022-09-22T10:43:36.973Z,53.81
2022-09-22T10:46:33.820Z,51.22
2022-09-22T10:49:10.795Z,47.91
2022-09-22T10:51:54.953Z,47.08
2022-09-22T10:55:01.954Z,45.16
2022-09-22T10:57:51.546Z,46.21
2022-09-22T11:00:21.708Z,44.87
2022-09-22T11:03:29.833Z,44.19
2022-09-22T11:06:30.303Z,44.46
2022-09-22T11:09:24.417Z,42.94
2022-09-22T11:12:20.146Z,42.60
2022-09-22T11:15:25.729Z,43.67
2022-09-22T11:18:14.398Z,40.45
2022-09-22T11:20:46.076Z,41.61
2022-09-22T11:23:36.855Z,42.07
2022-09-22T11:26:19.987Z,43.34
2022-09-22T11:28:58.934Z,42.80
2022-09-22T11:31:42.326Z,44.07
2022-09-22T11:34:33.487Z,46.34
2022-09-22T11:37:26.434Z,44.18
2022-09-22T11:40:17.747Z,44.82
2022-09-22T11:42:59.418Z,42.78
2022-09-22T11:45:44.771Z,40.68
2022-09-22T11:48:30.480Z,41.56
2022-09-22T11:51:21.926Z,40.54
2022-09-22T11:54:05.226Z,40.55
2022-09-22T11:56:39.461Z,39.48
2022-09-22T11:59:27.018Z,40.28
2022-09-22T12:01:57.963Z,41.69
2022-09-22T12:04:34.271Z,42.77
2022-09-22T12:07:03.941Z,41.49
2022-09-22T12:09:38.833Z,38.70
2022-09-22T12:12:12.709Z,39.94
2022-09-22T12:14:41.273Z,40.78
2022-09-22T12:17:21.457Z,40.17
2022-09-22T12:20:00.711Z,39.90
2022-09-22T12:22:33.767Z,40.88
2022-09-22T12:25:03.323Z,42.89
2022-09-22T12:27:32.626Z,42.62
2022-09-22T12:30:03.008Z,42.15
2022-09-22T12:32:37.092Z,40.03
2022-09-22T12:35:06.598Z,39.24
2022-09-22T12:37:37.080Z,39.61
2022-09-22T12:40:24.278Z,41.11
2022-09-22T12:42:54.441Z,40.27
2022-09-22T12:45:30.560Z,38.98
2022-09-22T12:48:00.869Z,36.87
2022-09-22T12:50:35.917Z,39.28
2022-09-22T12:53:11.127Z,36.75
2022-09-22T12:55:40.691Z,34.31
2022-09-22T12:58:44.467Z,35.86
2022-09-22T13:01:35.016Z,37.77
2022-09-22T13:04:12.949Z,39.44
2022-09-22T13:06:56.071Z,39.39
2022-09-22T13:09:26.974Z,34.38
2022-09-22T13:12:30.874Z,33.34
2022-09-22T13:15:24.383Z,34.16
2022-09-22T13:17:52.543Z,32.77
2022-09-22T13:20:24.347Z,36.36
2022-09-22T13:22:55.205Z,33.21
2022-09-22T13:25:26.406Z,33.82
2022-09-22T13:28:14.378Z,32.80
2022-09-22T13:30:43.978Z,35.50
2022-09-22T13:33:23.918Z,34.97
2022-09-22T13:35:57.017Z,36.16
2022-09-22T13:38:25.121Z,34.11
2022-09-22T13:40:53.626Z,33.74
2022-09-22T13:43:29.243Z,30.39
2022-09-22T13:45:59.712Z,29.80
2022-09-22T13:48:31.203Z,30.27
2022-09-22T13:51:03.447Z,31.67
2022-09-22T13:53:32.161Z,32.34
2022-09-22T13:56:00.694Z,32.37
2022-09-22T13:58:37.134Z,32.79
2022-09-22T14:01:15.183Z,33.50
2022-09-22T14:03:44.362Z,33.17
2022-09-22T14:06:15.037Z,33.95
2022-09-22T14:08:44.815Z,35.28
2022-09-22T14:11:16.145Z,35.96
2022-09-22T14:13:58.286Z,37.48
2022-09-22T14:16:31.880Z,38.31
2022-09-22T14:19:04.679Z,38.87
2022-09-22T14:21:33.532Z,38.28
2022-09-22T14:24:02.312Z,37.27
2022-09-22T14:26:36.017Z,36.80
2022-09-22T14:29:16.972Z,36.03
2022-09-22T14:31:48.089Z,34.02
2022-09-22T14:34:24.637Z,33.38
2022-09-22T14:36:54.992Z,35.06
2022-09-22T14:39:31.815Z,35.37
2022-09-22T14:42:08.879Z,35.74
2022-09-22T14:44:49.517Z,34.42
2022-09-22T14:47:25.823Z,33.97
2022-09-22T14:50:12.483Z,35.11
2022-09-22T14:52:43.356Z,35.34
2022-09-22T14:55:17.878Z,35.15
2022-09-22T14:57:49.731Z,34.76
2022-09-22T15:00:37.544Z,35.54
2022-09-22T15:03:16.399Z,36.12
2022-09-22T15:05:45.895Z,34.54
2022-09-22T15:08:15.589Z,35.29
2022-09-22T15:10:53.054Z,36.57
2022-09-22T15:13:29.540Z,36.81
2022-09-22T15:15:59.406Z,37.87
2022-09-22T15:18:30.747Z,38.48
2022-09-22T15:21:03.489Z,38.88
2022-09-22T15:23:35.583Z,39.33
2022-09-22T15:26:04.955Z,39.00
2022-09-22T15:28:38.028Z,39.67
2022-09-22T15:31:07.816Z,40.61
2022-09-22T15:33:36.021Z,40.78
2022-09-22T15:36:10.962Z,41.19
2022-09-22T15:38:39.742Z,41.65
2022-09-22T15:41:12.068Z,40.35
2022-09-22T15:43:41.251Z,40.62
2022-09-22T15:46:28.477Z,41.39
2022-09-22T15:49:01.066Z,41.22
2022-09-22T15:51:30.390Z,40.93
2022-09-22T15:53:58.410Z,40.84
2022-09-22T15:56:29.506Z,39.96
2022-09-22T15:59:00.819Z,40.53
2022-09-22T16:01:30.433Z,41.72
2022-09-22T16:04:00.106Z,42.43
2022-09-22T16:06:28.655Z,44.30
2022-09-22T16:08:58.335Z,44.22
2022-09-22T16:11:29.566Z,44.18
2022-09-22T16:14:00.937Z,46.33
2022-09-22T16:16:31.422Z,45.40
2022-09-22T16:18:59.889Z,46.17
2022-09-22T16:21:30.218Z,46.73
2022-09-22T16:24:03.913Z,47.93
2022-09-22T16:26:33.349Z,49.31
2022-09-22T16:29:01.775Z,47.75
2022-09-22T16:31:31.554Z,47.10
2022-09-22T16:34:01.693Z,48.80
2022-09-22T16:36:31.067Z,49.51
2022-09-22T16:38:59.446Z,50.52
2022-09-22T16:41:29.271Z,50.64
2022-09-22T16:43:58.155Z,54.61
2022-09-22T16:46:27.891Z,53.67
2022-09-22T16:49:00.194Z,55.59
2022-09-22T16:51:28.907Z,56.64
2022-09-22T16:53:57.519Z,57.98
2022-09-22T16:56:27.690Z,58.61
2022-09-22T16:58:56.356Z,59.50
2022-09-22T17:01:25.033Z,62.56
2022-09-22T17:03:53.740Z,62.90
2022-09-22T17:06:25.247Z,62.50
2022-09-22T17:08:54.929Z,66.27
2022-09-22T17:11:24.538Z,67.11
2022-09-22T17:13:52.744Z,74.12
2022-09-22T17:16:24.444Z,76.09
2022-09-22T17:18:53.475Z,79.56
2022-09-22T17:21:23.768Z,83.49
2022-09-22T17:23:54.794Z,87.65
2022-09-22T17:26:22.742Z,90.41
2022-09-22T17:28:52.610Z,90.61
2022-09-22T17:31:23.455Z,95.66
2022-09-22T17:33:52.549Z,98.77
2022-09-22T17:36:25.453Z,99.33
2022-09-22T17:38:55.686Z,100.00
2022-09-22T17:41:25.540Z,100.00
2022-09-22T17:43:56.675Z,100.00
2022-09-22T17:46:26.549Z,100.00
2022-09-22T17:49:12.548Z,100.00
2022-09-22T17:52:00.814Z,100.00
2022-09-22T17:54:48.298Z,100.00
2022-09-22T17:57:17.816Z,100.00
2022-09-22T17:59:47.139Z,100.00
2022-09-22T18:02:17.410Z,100.00
2022-09-22T18:04:46.256Z,100.00
2022-09-22T18:07:17.765Z,100.00
2022-09-22T18:09:48.804Z,100.00
2022-09-22T18:12:21.078Z,100.00
2022-09-22T18:14:51.984Z,100.00
2022-09-22T18:17:21.922Z,100.00
2022-09-22T18:19:50.124Z,100.00
2022-09-22T18:22:21.200Z,100.00
2022-09-22T18:24:50.451Z,100.00
2022-09-22T18:27:19.519Z,100.00
2022-09-22T18:29:49.908Z,100.00
2022-09-22T18:32:20.055Z,100.00
2022-09-22T18:34:51.101Z,100.00
2022-09-22T18:37:20.906Z,100.00
2022-09-22T18:39:50.363Z,100.00
2022-09-22T18:42:19.389Z,100.00
2022-09-22T18:44:47.869Z,100.00
2022-09-22T18:47:18.739Z,100.00
2022-09-22T18:49:48.141Z,100.00
2022-09-22T18:52:18.008Z,100.00
2022-09-22T18:54:47.426Z,100.00
2022-09-22T18:57:15.557Z,100.00
2022-09-22T18:59:43.577Z,100.00
2022-09-22T19:02:12.282Z,100.00
2022-09-22T19:04:40.613Z,100.00
2022-09-22T19:07:26.993Z,100.00
2022-09-22T19:09:56.474Z,100.00
2022-09-22T19:12:24.437Z,100.00
2022-09-22T19:14:54.410Z,100.00
2022-09-22T19:17:24.353Z,100.00
2022-09-22T19:19:52.578Z,100.00
2022-09-22T19:22:23.174Z,100.00
2022-09-22T19:24:52.400Z,100.00
2022-09-22T19:27:22.590Z,100.00
2022-09-22T19:29:51.724Z,100.00
2022-09-22T19:32:19.650Z,100.00
2022-09-22T19:34:47.561Z,100.00
2022-09-22T19:37:15.538Z,100.00
2022-09-22T19:39:43.943Z,100.00
2022-09-22T19:42:11.928Z,100.00
2022-09-22T19:44:41.485Z,100.00
2022-09-22T19:47:09.421Z,100.00
2022-09-22T19:49:37.434Z,100.00
2022-09-22T19:52:05.425Z,100.00
2022-09-22T19:54:33.469Z,100.00
2022-09-22T19:57:01.531Z,100.00
2022-09-22T19:59:29.606Z,100.00
2022-09-22T20:01:59.006Z,100.00
2022-09-22T20:04:27.039Z,100.00
2022-09-22T20:06:55.024Z,100.00
2022-09-22T20:09:22.979Z,100.00
2022-09-22T20:11:52.237Z,100.00
2022-09-22T20:14:23.666Z,100.00
2022-09-22T20:16:53.236Z,100.00
2022-09-22T20:19:24.432Z,100.00
2022-09-22T20:21:54.895Z,100.00
2022-09-22T20:24:24.168Z,100.00
2022-09-22T20:26:53.796Z,100.00
2022-09-22T20:29:21.785Z,100.00
2022-09-22T20:31:49.793Z,100.00
2022-09-22T20:34:17.948Z,100.00
2022-09-22T20:36:47.461Z,100.00
2022-09-22T20:39:15.887Z,100.00
2022-09-22T20:41:44.399Z,100.00
2022-09-22T20:44:14.697Z,100.00
2022-09-22T20:46:43.453Z,100.00
2022-09-22T20:49:13.845Z,100.00
2022-09-22T20:51:42.229Z,100.00
2022-09-22T20:54:11.557Z,100.00
2022-09-22T20:56:42.643Z,100.00
2022-09-22T20:59:11.161Z,100.00
2022-09-22T21:01:39.230Z,100.00
2022-09-22T21:04:07.450Z,100.00
2022-09-22T21:06:35.679Z,100.00
2022-09-22T21:09:21.385Z,100.00
2022-09-22T21:11:50.732Z,100.00
2022-09-22T21:14:18.595Z,100.00
2022-09-22T21:16:50.198Z,100.00
2022-09-22T21:19:18.422Z,100.00
2022-09-22T21:21:46.443Z,100.00
2022-09-22T21:24:14.700Z,100.00
2022-09-22T21:26:42.637Z,100.00
2022-09-22T21:29:11.938Z,100.00
2022-09-22T21:31:39.856Z,100.00
2022-09-22T21:34:07.968Z,100.00
2022-09-22T21:36:35.959Z,100.00
2022-09-22T21:39:04.084Z,100.00
2022-09-22T21:41:33.058Z,100.00
2022-09-22T21:44:01.238Z,100.00
2022-09-22T21:46:31.249Z,100.00
2022-09-22T21:49:01.526Z,100.00
2022-09-22T21:51:34.198Z,100.00
2022-09-22T21:54:04.321Z,100.00
2022-09-22T21:56:33.640Z,100.00
2022-09-22T21:59:03.088Z,100.00
2022-09-22T22:01:34.824Z,100.00
2022-09-22T22:04:07.784Z,100.00
2022-09-22T22:06:40.779Z,100.00
2022-09-22T22:09:13.896Z,100.00
2022-09-22T22:11:43.703Z,100.00
2022-09-22T22:14:12.917Z,100.00
2022-09-22T22:16:44.192Z,100.00
2022-09-22T22:19:13.637Z,100.00
2022-09-22T22:21:42.830Z,100.00
2022-09-22T22:24:28.386Z,100.00
2022-09-22T22:26:58.670Z,100.00
2022-09-22T22:29:28.114Z,100.00
2022-09-22T22:31:57.521Z,100.00
2022-09-22T22:34:26.470Z,100.00
2022-09-22T22:36:54.995Z,100.00
2022-09-22T22:39:23.164Z,100.00
2022-09-22T22:41:53.754Z,100.00
2022-09-22T22:44:21.673Z,100.00
2022-09-22T22:46:49.617Z,100.00
2022-09-22T22:49:19.179Z,100.00
2022-09-22T22:51:49.085Z,100.00
2022-09-22T22:54:17.077Z,100.00
2022-09-22T22:56:48.908Z,100.00
2022-09-22T22:59:19.360Z,100.00
2022-09-22T23:01:47.411Z,100.00
2022-09-22T23:04:16.484Z,100.00
2022-09-22T23:06:48.386Z,100.00
2022-09-22T23:09:17.671Z,100.00
2022-09-22T23:11:46.329Z,100.00
2022-09-22T23:14:15.882Z,100.00
2022-09-22T23:16:44.889Z,100.00
2022-09-22T23:19:14.435Z,100.00
2022-09-22T23:21:42.687Z,100.00
2022-09-22T23:24:15.980Z,100.00
2022-09-22T23:26:45.284Z,100.00
2022-09-22T23:29:13.535Z,100.00
2022-09-22T23:31:41.670Z,100.00
2022-09-22T23:34:09.554Z,100.00
2022-09-22T23:36:37.485Z,100.00
2022-09-22T23:39:05.729Z,100.00
2022-09-22T23:41:37.368Z,100.00
2022-09-22T23:44:06.425Z,100.00
2022-09-22T23:46:34.847Z,100.00
2022-09-22T23:49:02.883Z,100.00
2022-09-22T23:51:31.259Z,100.00
2022-09-22T23:53:59.892Z,100.00
2022-09-22T23:56:27.910Z,100.00
2022-09-22T23:58:57.546Z,100.00
